Time;durP1;ratioP1;P1;durP2;ratioP2;P2;SDS_P1;SDS_P2;PMS_P1;PMS_P2;Temp;Humidity;BMP_temperature;BMP_pressure;BME280_temperature;BME280_humidity;BME280_pressure;Samples;Min_cycle;Max_cycle;Signal;HPM_P1;HPM_P2
2023/06/28 00:01:27;;;;;;;7.60;3.50;;;;;;;16.62;97.94;101840.66;5082155;28;20028;-69
2023/06/28 00:03:53;;;;;;;6.90;3.42;;;;;;;16.48;97.65;101840.25;5076096;28;20067;-69
2023/06/28 00:06:19;;;;;;;7.70;3.90;;;;;;;16.50;96.71;101833.16;5085531;28;20047;-69
2023/06/28 00:08:45;;;;;;;7.75;3.28;;;;;;;16.46;98.52;101842.06;5083206;28;20031;-69
2023/06/28 00:11:11;;;;;;;7.35;3.95;;;;;;;16.42;99.35;101840.47;5083223;28;20475;-69
2023/06/28 00:13:36;;;;;;;9.52;2.78;;;;;;;16.44;96.76;101846.53;5083995;28;20032;-69
2023/06/28 00:16:02;;;;;;;9.30;3.72;;;;;;;16.42;97.35;101843.94;5082657;28;20073;-69
2023/06/28 00:18:29;;;;;;;8.25;2.72;;;;;;;16.44;97.26;101850.00;5083589;28;20024;-69
2023/06/28 00:20:55;;;;;;;7.30;2.70;;;;;;;16.38;99.38;101845.81;5083864;28;20036;-69
2023/06/28 00:23:20;;;;;;;7.47;3.08;;;;;;;16.40;99.29;101843.13;5082939;28;20055;-69
2023/06/28 00:25:45;;;;;;;5.40;2.75;;;;;;;16.44;98.41;101833.34;5083312;28;20387;-69
2023/06/28 00:28:10;;;;;;;8.07;3.15;;;;;;;16.54;98.39;101845.31;5081102;28;20033;-69
2023/06/28 00:30:37;;;;;;;7.15;3.25;;;;;;;16.45;98.97;101824.53;5082397;28;20063;-69
2023/06/28 00:33:02;;;;;;;8.70;3.22;;;;;;;16.51;99.45;101843.66;5082626;28;20032;-69
2023/06/28 00:35:27;;;;;;;6.20;2.95;;;;;;;16.46;98.30;101848.19;5082414;28;20432;-70
2023/06/28 00:37:53;;;;;;;5.50;3.03;;;;;;;16.49;98.35;101847.25;5083033;28;20031;-69
2023/06/28 00:40:18;;;;;;;7.07;2.95;;;;;;;16.49;97.96;101844.63;5081430;28;20028;-69
2023/06/28 00:42:43;;;;;;;5.93;3.00;;;;;;;16.49;99.99;101842.84;5069410;28;20384;-69
2023/06/28 00:45:13;;;;;;;10.02;3.28;;;;;;;16.52;97.51;101850.63;5086603;28;20029;-69
2023/06/28 00:47:39;;;;;;;4.70;2.72;;;;;;;16.47;97.60;101852.53;5085464;28;20032;-69
2023/06/28 00:50:06;;;;;;;6.80;3.10;;;;;;;16.37;97.75;101837.97;5088624;28;20044;-69
2023/06/28 00:52:31;;;;;;;7.28;2.55;;;;;;;16.42;97.43;101853.63;5083453;28;20028;-69
2023/06/28 00:55:00;;;;;;;7.10;2.92;;;;;;;16.42;97.06;101851.84;5078222;28;20047;-69
2023/06/28 00:57:25;;;;;;;7.85;2.75;;;;;;;16.46;95.88;101847.34;5079443;28;20522;-69
2023/06/28 00:59:53;;;;;;;5.80;2.80;;;;;;;16.42;97.43;101849.22;5089794;28;20036;-69
2023/06/28 01:02:19;;;;;;;7.25;2.40;;;;;;;16.38;95.51;101842.31;5083280;28;20032;-69
2023/06/28 01:04:48;;;;;;;5.78;2.58;;;;;;;16.33;94.29;101846.88;5078269;28;20024;-69
2023/06/28 01:07:14;;;;;;;4.70;2.40;;;;;;;16.42;94.52;101851.00;5075804;28;20051;-69
2023/06/28 01:09:40;;;;;;;5.72;2.40;;;;;;;16.40;94.40;101851.03;5075917;28;20024;-69
2023/06/28 01:12:07;;;;;;;6.65;2.70;;;;;;;16.31;95.64;101860.06;5079242;28;20024;-70
2023/06/28 01:14:35;;;;;;;8.10;2.58;;;;;;;16.20;94.65;101850.78;5087566;28;20063;-69
2023/06/28 01:17:00;;;;;;;5.97;2.20;;;;;;;16.17;94.94;101851.75;5081981;28;20035;-69
2023/06/28 01:19:26;;;;;;;8.80;2.53;;;;;;;16.18;94.04;101853.44;5085862;28;20028;-70
2023/06/28 01:22:01;;;;;;;26.58;21.65;;;;;;;16.09;95.64;101854.63;5085673;28;20698;-69
2023/06/28 01:24:27;;;;;;;45.85;41.30;;;;;;;16.04;97.43;101853.88;5062453;28;20032;-70
2023/06/28 01:26:53;;;;;;;45.20;37.15;;;;;;;16.05;97.37;101858.22;5085658;28;20064;-69
2023/06/28 01:29:23;;;;;;;29.23;26.02;;;;;;;16.05;99.57;101850.34;5085087;28;20446;-69
2023/06/28 01:31:55;;;;;;;20.92;15.45;;;;;;;15.99;100.00;101837.41;5087662;28;20070;-70
2023/06/28 01:34:22;;;;;;;11.55;7.60;;;;;;;16.04;100.00;101848.63;5083792;28;20027;-70
2023/06/28 01:36:49;;;;;;;13.75;8.10;;;;;;;16.02;100.00;101850.47;5088575;28;20029;-69
2023/06/28 01:39:17;;;;;;;14.30;8.65;;;;;;;15.98;100.00;101846.16;5083619;28;20020;-69
2023/06/28 01:41:45;;;;;;;11.60;7.10;;;;;;;15.99;100.00;101834.75;5087753;28;20040;-69
2023/06/28 01:44:10;;;;;;;10.68;6.05;;;;;;;16.07;100.00;101830.13;5083431;28;20016;-69
2023/06/28 01:46:36;;;;;;;9.23;4.88;;;;;;;16.20;100.00;101840.28;5090570;28;20107;-69
2023/06/28 01:49:01;;;;;;;6.82;3.33;;;;;;;16.21;100.00;101845.47;5082488;28;20020;-69
2023/06/28 01:51:27;;;;;;;7.43;3.50;;;;;;;16.19;100.00;101841.19;5089869;28;20086;-69
2023/06/28 01:53:52;;;;;;;7.28;3.42;;;;;;;16.20;100.00;101833.22;5082636;28;20047;-69
2023/06/28 01:56:18;;;;;;;5.78;3.30;;;;;;;16.19;100.00;101835.94;5088129;28;20020;-69
2023/06/28 01:58:43;;;;;;;8.82;3.85;;;;;;;16.25;100.00;101839.22;5085017;28;20376;-69
2023/06/28 02:01:09;;;;;;;8.55;3.55;;;;;;;16.23;100.00;101829.66;5086021;28;20383;-69
2023/06/28 02:03:34;;;;;;;10.35;6.88;;;;;;;16.23;100.00;101827.03;5082006;28;20493;-69
2023/06/28 02:05:59;;;;;;;7.72;4.05;;;;;;;16.15;100.00;101830.75;5085579;28;20032;-69
2023/06/28 02:08:25;;;;;;;10.23;7.85;;;;;;;16.13;100.00;101829.06;5085050;28;20356;-69
2023/06/28 02:10:50;;;;;;;27.55;20.40;;;;;;;16.14;100.00;101825.53;5085644;28;20024;-69
2023/06/28 02:13:15;;;;;;;26.85;20.83;;;;;;;16.13;100.00;101819.41;5086075;28;20451;-69
2023/06/28 02:15:41;;;;;;;17.60;15.68;;;;;;;16.16;100.00;101813.19;5080299;28;20043;-69
2023/06/28 02:18:07;;;;;;;8.65;6.38;;;;;;;16.18;100.00;101821.03;5083615;28;20021;-70
2023/06/28 02:20:32;;;;;;;10.48;6.05;;;;;;;16.18;100.00;101816.63;5085752;28;20066;-69
2023/06/28 02:22:58;;;;;;;9.32;4.30;;;;;;;16.19;100.00;101810.47;5083643;28;20464;-69
2023/06/28 02:25:23;;;;;;;15.02;7.00;;;;;;;16.23;100.00;101811.22;5084828;28;20036;-70
2023/06/28 02:27:48;;;;;;;8.35;4.90;;;;;;;16.21;100.00;101818.31;5085775;28;20116;-69
2023/06/28 02:30:14;;;;;;;8.98;5.00;;;;;;;16.13;100.00;101798.38;5083053;28;20132;-69
2023/06/28 02:32:39;;;;;;;11.45;6.82;;;;;;;16.23;100.00;101808.59;5085581;28;20426;-69
2023/06/28 02:35:05;;;;;;;15.88;11.77;;;;;;;16.17;100.00;101803.53;5085309;28;20412;-69
2023/06/28 02:37:30;;;;;;;13.38;9.05;;;;;;;16.11;100.00;101818.59;5083468;28;20495;-69
2023/06/28 02:39:55;;;;;;;14.73;9.30;;;;;;;16.05;100.00;101818.78;5087125;28;20558;-69
2023/06/28 02:42:21;;;;;;;15.95;10.45;;;;;;;16.02;100.00;101808.38;5082387;28;20028;-69
2023/06/28 02:44:46;;;;;;;16.75;12.40;;;;;;;15.97;100.00;101812.91;5074003;28;20035;-69
2023/06/28 02:47:11;;;;;;;17.13;15.30;;;;;;;15.89;100.00;101805.25;5082027;28;20025;-69
2023/06/28 02:49:37;;;;;;;23.05;18.52;;;;;;;15.79;100.00;101802.94;5089392;28;20020;-69
2023/06/28 02:52:05;;;;;;;25.05;18.92;;;;;;;15.70;100.00;101814.59;5081075;28;20515;-70
2023/06/28 02:54:30;;;;;;;24.42;21.83;;;;;;;15.63;100.00;101811.25;5089190;28;20042;-69
2023/06/28 02:56:55;;;;;;;25.60;22.15;;;;;;;15.52;100.00;101817.72;5081874;28;20033;-70
2023/06/28 02:59:21;;;;;;;24.77;21.67;;;;;;;15.46;100.00;101814.34;5086864;28;20020;-69
2023/06/28 03:01:46;;;;;;;26.55;21.05;;;;;;;15.41;100.00;101815.41;5083775;28;20025;-69
2023/06/28 03:04:12;;;;;;;16.92;13.50;;;;;;;15.32;100.00;101823.53;5081122;28;20123;-70
2023/06/28 03:06:38;;;;;;;23.33;20.75;;;;;;;15.23;100.00;101814.13;5084200;28;20016;-70
2023/06/28 03:09:04;;;;;;;35.83;31.20;;;;;;;15.17;100.00;101804.66;5084179;28;20055;-70
2023/06/28 03:11:29;;;;;;;29.20;26.33;;;;;;;15.16;100.00;101813.44;5083805;28;20072;-70
2023/06/28 03:13:55;;;;;;;21.48;18.42;;;;;;;15.11;100.00;101819.72;5084130;28;20161;-69
2023/06/28 03:16:22;;;;;;;20.23;18.05;;;;;;;15.11;100.00;101814.47;5079869;28;20028;-69
2023/06/28 03:18:47;;;;;;;20.60;16.50;;;;;;;15.11;100.00;101810.09;5085919;28;20539;-69
2023/06/28 03:21:13;;;;;;;16.63;10.45;;;;;;;15.12;100.00;101819.69;5083504;28;20125;-70
2023/06/28 03:23:38;;;;;;;15.85;10.45;;;;;;;15.19;100.00;101815.13;5084859;28;20028;-70
2023/06/28 03:26:03;;;;;;;13.95;7.30;;;;;;;15.17;100.00;101803.78;5084080;28;20035;-69
2023/06/28 03:28:29;;;;;;;12.70;7.70;;;;;;;15.14;100.00;101804.75;5082385;28;20494;-70
2023/06/28 03:30:54;;;;;;;15.27;7.97;;;;;;;15.14;100.00;101803.84;5083639;28;20044;-70
2023/06/28 03:33:20;;;;;;;12.63;7.75;;;;;;;15.10;100.00;101810.97;5081652;28;20048;-70
2023/06/28 03:35:45;;;;;;;14.35;8.45;;;;;;;15.12;100.00;101808.31;5083177;28;20081;-70
2023/06/28 03:38:10;;;;;;;12.35;7.00;;;;;;;15.06;100.00;101801.44;5083128;28;20028;-70
2023/06/28 03:40:36;;;;;;;12.82;6.70;;;;;;;14.98;100.00;101799.03;5081656;28;20028;-70
2023/06/28 03:43:02;;;;;;;11.13;6.80;;;;;;;14.99;100.00;101802.53;5083734;28;20020;-70
2023/06/28 03:45:28;;;;;;;12.80;6.00;;;;;;;14.96;100.00;101807.84;5082046;28;20021;-70
2023/06/28 03:47:54;;;;;;;8.98;5.40;;;;;;;15.00;100.00;101806.88;5082840;28;20028;-70
2023/06/28 03:50:20;;;;;;;9.85;5.15;;;;;;;14.97;100.00;101801.69;5083731;28;20070;-70
2023/06/28 03:52:45;;;;;;;8.15;4.53;;;;;;;14.97;100.00;101801.69;5081953;28;20473;-70
2023/06/28 03:55:10;;;;;;;11.23;5.43;;;;;;;14.88;100.00;101804.59;5084820;28;20463;-70
2023/06/28 03:57:36;;;;;;;9.43;5.43;;;;;;;14.96;100.00;101807.84;5080022;28;20027;-70
2023/06/28 04:00:06;;;;;;;9.38;5.82;;;;;;;14.90;100.00;101797.50;5088039;28;20472;-70
2023/06/28 04:02:31;;;;;;;12.48;5.45;;;;;;;14.92;100.00;101790.47;5079096;28;20020;-70
2023/06/28 04:04:57;;;;;;;10.07;5.60;;;;;;;15.03;100.00;101798.06;5085132;28;20035;-70
2023/06/28 04:07:24;;;;;;;11.05;5.50;;;;;;;15.08;100.00;101789.16;5079658;28;20184;-70
2023/06/28 04:09:56;;;;;;;13.32;5.40;;;;;;;15.15;100.00;101790.69;5087579;28;20058;-70
2023/06/28 04:12:21;;;;;;;9.18;5.45;;;;;;;15.23;100.00;101786.09;5079874;28;20031;-70
2023/06/28 04:14:46;;;;;;;9.93;5.50;;;;;;;15.30;100.00;101791.16;5078870;28;20024;-70
2023/06/28 04:17:12;;;;;;;10.98;6.05;;;;;;;15.34;100.00;101790.22;5080573;28;20028;-70
2023/06/28 04:19:37;;;;;;;11.13;6.20;;;;;;;15.39;100.00;101783.03;5083492;28;20089;-70
2023/06/28 04:22:03;;;;;;;13.88;6.10;;;;;;;15.34;100.00;101796.31;5079335;28;20033;-70
2023/06/28 04:24:28;;;;;;;12.75;5.75;;;;;;;15.39;100.00;101785.66;5085949;28;20031;-70
2023/06/28 04:26:54;;;;;;;13.77;5.80;;;;;;;15.43;100.00;101789.91;5079452;28;20472;-70
2023/06/28 04:29:19;;;;;;;8.02;5.72;;;;;;;15.42;100.00;101801.34;5047953;28;1081734;-70
2023/06/28 04:31:44;;;;;;;8.40;6.00;;;;;;;15.37;100.00;101790.97;5080195;28;20032;-70
2023/06/28 04:34:10;;;;;;;12.88;5.93;;;;;;;15.38;100.00;101782.19;5088174;28;20379;-70
2023/06/28 04:36:35;;;;;;;13.43;6.40;;;;;;;15.46;100.00;101790.69;5079292;28;20021;-70
2023/06/28 04:39:03;;;;;;;10.82;5.90;;;;;;;15.50;100.00;101782.72;5086077;28;20387;-70
2023/06/28 04:41:28;;;;;;;11.02;5.55;;;;;;;15.57;100.00;101785.13;5081872;28;20027;-70
2023/06/28 04:43:56;;;;;;;9.23;5.65;;;;;;;15.56;100.00;101791.28;5083625;28;20487;-70
2023/06/28 04:46:28;;;;;;;8.65;5.80;;;;;;;15.57;100.00;101787.78;5083488;28;20052;-70
2023/06/28 04:48:55;;;;;;;10.80;6.07;;;;;;;15.65;100.00;101791.03;5082375;28;20070;-70
2023/06/28 04:51:24;;;;;;;11.25;6.20;;;;;;;15.57;100.00;101777.25;5082995;28;20498;-70
2023/06/28 04:53:55;;;;;;;9.55;4.85;;;;;;;15.76;100.00;101785.50;5082952;28;21412;-70
2023/06/28 04:56:20;;;;;;;13.02;5.82;;;;;;;15.73;100.00;101784.69;5083150;28;20069;-70
2023/06/28 04:58:46;;;;;;;9.85;5.30;;;;;;;15.71;100.00;101791.78;5081726;28;20020;-70
2023/06/28 05:01:14;;;;;;;9.85;5.60;;;;;;;15.66;100.00;101791.88;5083499;28;20086;-70
2023/06/28 05:03:39;;;;;;;11.27;5.53;;;;;;;15.69;100.00;101797.06;5080161;28;20036;-70
2023/06/28 05:06:08;;;;;;;10.25;6.05;;;;;;;15.72;100.00;101791.72;5079918;28;20031;-70
2023/06/28 05:08:34;;;;;;;9.15;5.65;;;;;;;15.74;100.00;101794.34;5083290;28;20020;-70
2023/06/28 05:11:00;;;;;;;13.10;6.20;;;;;;;15.75;100.00;101782.91;5082600;28;20376;-70
2023/06/28 05:13:26;;;;;;;10.02;5.45;;;;;;;15.83;100.00;101783.53;5083310;28;20028;-70
2023/06/28 05:15:51;;;;;;;11.55;5.90;;;;;;;15.85;100.00;101792.22;5078511;28;20028;-70
2023/06/28 05:18:20;;;;;;;10.00;5.60;;;;;;;15.91;100.00;101798.16;5079630;28;20046;-70
2023/06/28 05:20:51;;;;;;;10.65;5.28;;;;;;;15.84;100.00;101801.88;5076331;28;20038;-70
2023/06/28 05:23:22;;;;;;;9.52;5.85;;;;;;;15.93;100.00;101803.38;5082407;28;20071;-70
2023/06/28 05:25:48;;;;;;;9.25;5.68;;;;;;;15.89;100.00;101804.38;5082516;28;20376;-70
2023/06/28 05:28:14;;;;;;;7.80;5.28;;;;;;;15.95;100.00;101798.06;5082979;28;20036;-70
2023/06/28 05:30:41;;;;;;;14.05;5.57;;;;;;;15.90;100.00;101796.44;5086132;28;20438;-70
2023/06/28 05:33:10;;;;;;;10.43;5.43;;;;;;;15.94;100.00;101796.34;5084480;28;20031;-70
2023/06/28 05:35:36;;;;;;;14.35;5.90;;;;;;;15.93;100.00;101790.25;5082736;28;20043;-70
2023/06/28 05:38:03;;;;;;;9.25;5.53;;;;;;;15.99;100.00;101799.69;5086961;28;20028;-70
2023/06/28 05:40:29;;;;;;;11.15;5.90;;;;;;;15.99;100.00;101795.31;5084534;28;20039;-70
2023/06/28 05:42:55;;;;;;;10.65;5.80;;;;;;;15.94;100.00;101780.56;5086777;28;20119;-70
2023/06/28 05:45:25;;;;;;;10.57;6.70;;;;;;;15.88;100.00;101781.63;5082504;28;20105;-70
2023/06/28 05:47:51;;;;;;;8.85;5.55;;;;;;;15.93;100.00;101769.19;5085912;28;20043;-70
2023/06/28 05:50:17;;;;;;;13.93;6.20;;;;;;;16.09;100.00;101778.34;5084011;28;20031;-70
2023/06/28 05:52:44;;;;;;;14.50;6.40;;;;;;;16.07;100.00;101774.03;5085034;28;20045;-70
2023/06/28 05:55:09;;;;;;;8.73;6.13;;;;;;;16.20;100.00;101777.97;5084806;28;20024;-70
2023/06/28 05:57:35;;;;;;;13.30;5.68;;;;;;;16.29;100.00;101776.84;5082719;28;20035;-70
2023/06/28 06:00:01;;;;;;;8.55;6.05;;;;;;;16.32;100.00;101767.06;5091221;28;20066;-70
2023/06/28 06:02:33;;;;;;;14.18;6.88;;;;;;;16.38;100.00;101771.25;5081982;28;20526;-70
2023/06/28 06:04:58;;;;;;;12.77;7.07;;;;;;;16.49;100.00;101774.41;5089776;28;20029;-70
2023/06/28 06:07:24;;;;;;;10.30;6.22;;;;;;;16.60;100.00;101777.53;5081896;28;20032;-70
2023/06/28 06:09:49;;;;;;;10.27;6.50;;;;;;;16.58;100.00;101770.63;5091084;28;20024;-70
2023/06/28 06:12:14;;;;;;;12.75;6.15;;;;;;;16.66;100.00;101780.88;5082869;28;20029;-70
2023/06/28 06:14:40;;;;;;;15.88;6.60;;;;;;;16.66;100.00;101770.34;5078630;28;20040;-70
2023/06/28 06:17:05;;;;;;;11.68;6.30;;;;;;;16.68;100.00;101768.53;5083133;28;20062;-70
2023/06/28 06:19:31;;;;;;;11.18;6.85;;;;;;;16.75;100.00;101773.56;5087478;28;20016;-70
2023/06/28 06:21:56;;;;;;;10.57;6.65;;;;;;;16.68;100.00;101769.38;5074955;28;20111;-70
2023/06/28 06:24:21;;;;;;;11.68;6.65;;;;;;;16.77;100.00;101776.13;5089726;28;20369;-70
2023/06/28 06:26:47;;;;;;;13.05;6.90;;;;;;;16.76;100.00;101777.03;5082020;28;20025;-70
2023/06/28 06:29:12;;;;;;;12.10;7.05;;;;;;;16.73;100.00;101777.13;5081039;28;20399;-70
2023/06/28 06:31:37;;;;;;;14.93;6.90;;;;;;;16.68;100.00;101779.06;5085613;28;20031;-70
2023/06/28 06:34:03;;;;;;;11.82;6.90;;;;;;;16.67;100.00;101778.19;5088758;28;20024;-70
2023/06/28 06:36:28;;;;;;;10.18;6.53;;;;;;;16.58;100.00;101774.09;5081992;28;20020;-70
2023/06/28 06:38:57;;;;;;;11.85;6.55;;;;;;;16.58;100.00;101783.78;5086678;28;20123;-70
2023/06/28 06:41:22;;;;;;;16.35;7.25;;;;;;;16.53;100.00;101781.28;5084083;28;20031;-70
2023/06/28 06:43:51;;;;;;;11.45;6.00;;;;;;;16.54;100.00;101777.72;5084449;28;20032;-70
2023/06/28 06:46:18;;;;;;;6.80;5.40;;;;;;;16.63;100.00;101779.19;5085160;28;20024;-70
2023/06/28 06:48:44;;;;;;;12.45;6.70;;;;;;;16.69;100.00;101780.78;5084116;28;20048;-70
2023/06/28 06:51:09;;;;;;;8.13;5.55;;;;;;;16.71;100.00;101785.09;5078751;28;20021;-70
2023/06/28 06:53:35;;;;;;;17.08;7.03;;;;;;;16.80;100.00;101778.66;5083823;28;20023;-70
2023/06/28 06:56:00;;;;;;;12.18;5.90;;;;;;;16.81;100.00;101781.25;5085160;28;20039;-70
2023/06/28 06:58:25;;;;;;;11.40;6.30;;;;;;;16.85;100.00;101782.00;5083855;28;20112;-70
2023/06/28 07:00:52;;;;;;;8.70;5.63;;;;;;;16.84;100.00;101782.91;5084513;28;20036;-70
2023/06/28 07:03:18;;;;;;;13.60;5.90;;;;;;;16.82;100.00;101771.56;5085370;28;20035;-70
2023/06/28 07:05:43;;;;;;;8.13;5.90;;;;;;;16.96;100.00;101793.00;5083085;28;20059;-70
2023/06/28 07:08:11;;;;;;;9.80;5.50;;;;;;;16.98;100.00;101796.47;5070681;28;20063;-70
2023/06/28 07:10:37;;;;;;;9.60;4.72;;;;;;;17.00;100.00;101796.38;5084858;28;20539;-70
2023/06/28 07:13:02;;;;;;;10.55;5.70;;;;;;;17.00;100.00;101791.13;5083267;28;20115;-70
2023/06/28 07:15:27;;;;;;;11.50;5.32;;;;;;;16.98;100.00;101793.81;5083685;28;20024;-70
2023/06/28 07:17:53;;;;;;;10.55;5.20;;;;;;;16.93;100.00;101798.38;5082486;28;20026;-70
2023/06/28 07:20:20;;;;;;;7.80;5.15;;;;;;;16.88;100.00;101805.59;5084056;28;20032;-70
2023/06/28 07:22:45;;;;;;;11.70;5.78;;;;;;;16.85;100.00;101803.06;5084499;28;20099;-70
2023/06/28 07:25:11;;;;;;;9.75;4.90;;;;;;;16.84;100.00;101806.63;5082055;28;20548;-70
2023/06/28 07:27:37;;;;;;;12.05;5.90;;;;;;;16.80;100.00;101804.97;5084540;28;20032;-70
2023/06/28 07:30:03;;;;;;;10.25;5.07;;;;;;;16.87;100.00;101806.50;5083441;28;20111;-70
2023/06/28 07:32:28;;;;;;;8.52;5.03;;;;;;;16.77;100.00;101784.88;5082838;28;20029;-71
2023/06/28 07:34:54;;;;;;;9.27;5.00;;;;;;;16.91;100.00;101808.13;5085720;28;20040;-70
2023/06/28 07:37:21;;;;;;;12.43;5.90;;;;;;;17.00;100.00;101809.56;5082077;28;20055;-70
2023/06/28 07:39:46;;;;;;;9.30;5.40;;;;;;;17.01;100.00;101796.34;5086502;28;20408;-70
2023/06/28 07:42:12;;;;;;;7.70;5.00;;;;;;;17.07;100.00;101804.03;5080866;28;20059;-70
2023/06/28 07:44:38;;;;;;;9.48;5.40;;;;;;;17.06;100.00;101802.31;5088616;28;20471;-70
2023/06/28 07:47:03;;;;;;;9.35;5.03;;;;;;;17.16;100.00;101810.75;5080214;28;20024;-69
2023/06/28 07:49:29;;;;;;;8.38;5.18;;;;;;;17.12;100.00;101805.66;5088364;28;20032;-70
2023/06/28 07:51:54;;;;;;;9.75;4.82;;;;;;;17.15;100.00;101803.75;5074477;28;20050;-70
2023/06/28 07:54:23;;;;;;;9.15;5.75;;;;;;;17.13;100.00;101802.94;5086751;28;20024;-70
2023/06/28 07:56:49;;;;;;;13.95;5.38;;;;;;;17.19;100.00;101810.63;5082080;28;20024;-70
2023/06/28 07:59:14;;;;;;;10.10;5.05;;;;;;;17.28;100.00;101806.81;5086061;28;20024;-70
2023/06/28 08:01:39;;;;;;;10.88;4.95;;;;;;;17.36;100.00;101803.91;5082936;28;20032;-70
2023/06/28 08:04:07;;;;;;;9.70;5.15;;;;;;;17.41;100.00;101809.88;5076832;28;20029;-70
2023/06/28 08:06:33;;;;;;;10.13;5.22;;;;;;;17.44;100.00;101801.84;5080164;28;20032;-70
2023/06/28 08:08:58;;;;;;;10.63;5.10;;;;;;;17.50;100.00;101801.63;5082928;28;20051;-70
2023/06/28 08:11:24;;;;;;;9.30;5.80;;;;;;;17.57;100.00;101797.84;5083734;28;20467;-70
2023/06/28 08:13:50;;;;;;;12.60;5.20;;;;;;;17.69;100.00;101807.94;5083335;28;20110;-70
2023/06/28 08:16:16;;;;;;;11.35;5.05;;;;;;;17.70;100.00;101804.38;5072339;28;20036;-70
2023/06/28 08:18:41;;;;;;;10.25;5.20;;;;;;;17.69;100.00;101797.38;5085370;28;20063;-70
2023/06/28 08:21:06;;;;;;;11.02;4.57;;;;;;;17.76;100.00;101805.94;5081821;28;20028;-70
2023/06/28 08:23:32;;;;;;;9.25;4.93;;;;;;;17.81;100.00;101801.34;5083327;28;20026;-70
2023/06/28 08:25:57;;;;;;;9.30;4.78;;;;;;;17.88;100.00;101797.53;5084004;28;20028;-70
2023/06/28 08:28:22;;;;;;;9.60;4.70;;;;;;;17.93;100.00;101781.56;5081378;28;20119;-70
2023/06/28 08:30:47;;;;;;;11.32;4.80;;;;;;;18.08;100.00;101793.28;5083521;28;20028;-70
2023/06/28 08:33:13;;;;;;;11.80;4.85;;;;;;;18.26;100.00;101800.47;5075389;28;20472;-70
2023/06/28 08:35:38;;;;;;;9.25;4.82;;;;;;;18.42;97.70;101798.91;5082685;28;20521;-70
2023/06/28 08:38:04;;;;;;;9.30;4.05;;;;;;;18.51;98.77;101789.78;5083572;28;20099;-70
2023/06/28 08:40:30;;;;;;;7.90;4.45;;;;;;;18.71;100.00;101805.63;5082144;28;20111;-70
2023/06/28 08:43:01;;;;;;;7.13;4.82;;;;;;;18.83;96.59;101808.69;5083062;28;20024;-70
2023/06/28 08:45:26;;;;;;;8.82;4.53;;;;;;;18.83;94.78;101798.97;5082285;28;20411;-69
2023/06/28 08:47:54;;;;;;;11.27;4.38;;;;;;;19.00;95.14;101793.00;5083811;28;20028;-71
2023/06/28 08:50:21;;;;;;;8.20;4.15;;;;;;;19.27;95.56;101792.69;5079448;28;20035;-72
2023/06/28 08:52:47;;;;;;;7.43;4.43;;;;;;;19.47;94.46;101789.16;5082563;28;20032;-70
2023/06/28 08:55:13;;;;;;;10.88;4.95;;;;;;;19.77;90.52;101793.03;5085707;28;20031;-70
2023/06/28 08:57:39;;;;;;;10.18;4.65;;;;;;;20.06;89.75;101775.78;5080011;28;20027;-70
2023/06/28 09:00:06;;;;;;;7.50;4.70;;;;;;;20.30;85.46;101786.94;5087677;28;20016;-71
2023/06/28 09:02:34;;;;;;;8.40;4.57;;;;;;;20.51;89.23;101789.50;5079965;28;20036;-70
2023/06/28 09:04:59;;;;;;;11.48;5.22;;;;;;;20.62;84.66;101792.47;5078029;28;20040;-70
2023/06/28 09:07:25;;;;;;;8.90;4.30;;;;;;;20.66;84.67;101791.38;5086734;28;20028;-70
2023/06/28 09:09:52;;;;;;;7.85;4.28;;;;;;;20.68;84.38;101783.38;5092664;28;20020;-70
2023/06/28 09:12:18;;;;;;;5.53;4.05;;;;;;;20.72;80.84;101791.06;5083223;28;20025;-70
2023/06/28 09:14:44;;;;;;;8.95;4.35;;;;;;;20.85;79.02;101785.13;5084013;28;20073;-70
2023/06/28 09:17:09;;;;;;;10.48;4.30;;;;;;;20.89;78.98;101776.94;5084469;28;20064;-70
2023/06/28 09:19:35;;;;;;;11.85;3.97;;;;;;;21.00;82.84;101776.41;5088295;28;20111;-70
2023/06/28 09:22:04;;;;;;;17.63;4.50;;;;;;;21.08;80.19;101778.63;5083916;28;20025;-70
2023/06/28 09:24:34;;;;;;;9.27;4.25;;;;;;;20.98;78.66;101776.47;5088973;28;20108;-70
2023/06/28 09:27:07;;;;;;;11.23;4.22;;;;;;;20.91;80.67;101777.72;5080098;28;20036;-70
2023/06/28 09:29:32;;;;;;;12.02;4.00;;;;;;;20.94;78.54;101776.72;5076560;28;20045;-70
2023/06/28 09:31:58;;;;;;;6.65;3.78;;;;;;;21.05;78.41;101782.31;5081433;28;20040;-70
2023/06/28 09:34:24;;;;;;;7.28;3.53;;;;;;;21.12;80.03;101785.47;5090448;28;20036;-70
2023/06/28 09:36:56;;;;;;;9.00;4.05;;;;;;;21.20;80.35;101784.16;5083832;28;20028;-70
2023/06/28 09:39:24;;;;;;;8.68;4.20;;;;;;;21.25;77.52;101779.47;5090219;28;20119;-70
2023/06/28 09:41:50;;;;;;;11.25;3.80;;;;;;;21.48;78.58;101783.56;5083437;28;20024;-70
2023/06/28 09:44:27;;;;;;;10.65;4.32;;;;;;;21.77;77.79;101785.53;5089962;28;20032;-70
2023/06/28 09:46:59;;;;;;;6.93;3.78;;;;;;;21.81;75.27;101781.78;5078662;28;20031;-70
2023/06/28 09:49:25;;;;;;;7.77;4.20;;;;;;;21.79;71.17;101781.03;5090245;28;20550;-70
2023/06/28 09:52:02;;;;;;;9.25;4.20;;;;;;;21.69;72.37;101772.72;5083394;28;20028;-70
2023/06/28 09:54:32;;;;;;;8.43;3.78;;;;;;;21.69;72.94;101781.53;5089534;28;20058;-70
2023/06/28 09:56:59;;;;;;;7.78;3.67;;;;;;;21.84;72.41;101782.44;5078368;28;20387;-70
2023/06/28 09:59:28;;;;;;;9.18;3.50;;;;;;;21.95;70.02;101763.28;5088250;28;20027;-70
2023/06/28 10:01:57;;;;;;;9.45;3.63;;;;;;;22.25;66.42;101773.97;5083929;28;20093;-70
2023/06/28 10:04:25;;;;;;;8.43;3.70;;;;;;;22.54;70.18;101774.09;5072493;28;20439;-70
2023/06/28 10:06:51;;;;;;;7.63;3.85;;;;;;;22.92;68.04;101758.47;5085426;28;20028;-70
2023/06/28 10:09:22;;;;;;;9.85;3.70;;;;;;;23.40;66.96;101764.41;5087127;28;20024;-70
2023/06/28 10:11:48;;;;;;;11.30;4.05;;;;;;;23.66;63.84;101764.56;5086009;28;20472;-70
2023/06/28 10:14:16;;;;;;;9.05;3.40;;;;;;;23.81;63.85;101771.63;5084740;28;20035;-70
2023/06/28 10:16:43;;;;;;;10.27;3.72;;;;;;;23.77;60.62;101741.66;5078120;28;20111;-70
2023/06/28 10:19:09;;;;;;;6.07;3.10;;;;;;;23.93;58.80;101752.16;5089417;28;20089;-70
2023/06/28 10:21:36;;;;;;;7.95;3.63;;;;;;;23.88;55.98;101751.63;5081516;28;20111;-70
2023/06/28 10:24:03;;;;;;;5.85;3.15;;;;;;;23.77;57.80;101762.97;5089729;28;20024;-70
2023/06/28 10:26:30;;;;;;;9.50;3.20;;;;;;;23.56;58.81;101748.34;5078191;28;20052;-70
2023/06/28 10:28:57;;;;;;;5.45;3.00;;;;;;;23.60;61.37;101750.69;5087238;28;20058;-71
2023/06/28 10:31:22;;;;;;;10.43;3.22;;;;;;;23.64;57.53;101759.31;5083491;28;20035;-71
2023/06/28 10:33:50;;;;;;;6.35;3.05;;;;;;;23.70;58.67;101750.13;5086767;28;20023;-70
2023/06/28 10:36:16;;;;;;;8.52;3.45;;;;;;;23.79;59.22;101757.53;5084527;28;20020;-70
2023/06/28 10:38:43;;;;;;;11.18;3.40;;;;;;;23.91;56.62;101748.75;5077420;28;20020;-70
2023/06/28 10:41:14;;;;;;;8.32;3.53;;;;;;;24.05;57.91;101756.69;5085296;28;20024;-70
2023/06/28 10:43:39;;;;;;;10.55;3.53;;;;;;;24.17;58.64;101756.84;5083325;28;20107;-70
2023/06/28 10:46:23;;;;;;;8.25;3.85;;;;;;;24.22;55.65;101752.03;5085585;28;20060;-70
2023/06/28 10:48:52;;;;;;;7.13;3.40;;;;;;;24.27;54.21;101761.44;5074027;28;20054;-70
2023/06/28 10:51:23;;;;;;;6.93;3.58;;;;;;;24.36;55.86;101744.00;5085402;28;20020;-70
2023/06/28 10:53:55;;;;;;;8.50;3.72;;;;;;;24.47;58.49;101744.16;5084603;28;20047;-70
2023/06/28 10:56:21;;;;;;;6.85;3.20;;;;;;;24.71;55.14;101740.75;5084361;28;20471;-70
2023/06/28 10:58:53;;;;;;;8.30;3.47;;;;;;;25.07;55.34;101749.81;5084372;28;20042;-70
2023/06/28 11:01:32;;;;;;;6.38;3.38;;;;;;;25.30;55.34;101743.75;5084979;28;20024;-70
2023/06/28 11:04:18;;;;;;;8.20;3.75;;;;;;;25.57;53.75;101729.34;5081469;28;20055;-70
2023/06/28 11:06:44;;;;;;;11.43;4.40;;;;;;;26.04;52.70;101739.25;5084048;28;20027;-70
2023/06/28 11:09:15;;;;;;;7.57;3.53;;;;;;;26.26;49.59;101734.94;5085024;28;20035;-70
2023/06/28 11:11:57;;;;;;;9.40;4.38;;;;;;;26.33;48.23;101718.34;5083997;28;20024;-70